sensor_id;sensor_type;location;lat;lon;timestamp;P1;durP1;ratioP1;P2;durP2;ratioP2
7585;SDS011;12459;42.646;23.292;2023-06-22T00:11:57;32.50;;;31.00;;
7585;SDS011;12459;42.646;23.292;2023-06-22T00:26:58;31.80;;;30.30;;
7585;SDS011;12459;42.646;23.292;2023-06-22T00:42:00;27.47;;;26.17;;
7585;SDS011;12459;42.646;23.292;2023-06-22T00:57:02;34.10;;;32.50;;
7585;SDS011;12459;42.646;23.292;2023-06-22T01:12:05;30.13;;;28.73;;
7585;SDS011;12459;42.646;23.292;2023-06-22T01:27:23;31.53;;;30.03;;
7585;SDS011;12459;42.646;23.292;2023-06-22T01:42:34;31.23;;;29.77;;
7585;SDS011;12459;42.646;23.292;2023-06-22T01:57:37;36.27;;;34.60;;
7585;SDS011;12459;42.646;23.292;2023-06-22T02:12:40;30.57;;;29.17;;
7585;SDS011;12459;42.646;23.292;2023-06-22T02:27:44;27.10;;;25.80;;
7585;SDS011;12459;42.646;23.292;2023-06-22T02:42:46;29.40;;;28.00;;
7585;SDS011;12459;42.646;23.292;2023-06-22T02:57:48;31.00;;;29.57;;
7585;SDS011;12459;42.646;23.292;2023-06-22T03:12:54;30.53;;;29.13;;
7585;SDS011;12459;42.646;23.292;2023-06-22T03:27:56;29.73;;;28.33;;
7585;SDS011;12459;42.646;23.292;2023-06-22T03:42:57;31.13;;;29.67;;
7585;SDS011;12459;42.646;23.292;2023-06-22T03:57:59;30.00;;;28.60;;
7585;SDS011;12459;42.646;23.292;2023-06-22T04:13:07;34.90;;;33.30;;
7585;SDS011;12459;42.646;23.292;2023-06-22T04:28:09;37.90;;;36.17;;
7585;SDS011;12459;42.646;23.292;2023-06-22T04:43:14;31.63;;;30.13;;
7585;SDS011;12459;42.646;23.292;2023-06-22T04:58:15;34.80;;;33.20;;
7585;SDS011;12459;42.646;23.292;2023-06-22T05:13:17;31.77;;;30.27;;
7585;SDS011;12459;42.646;23.292;2023-06-22T05:28:19;42.43;;;40.53;;
7585;SDS011;12459;42.646;23.292;2023-06-22T05:43:24;34.50;;;32.90;;
7585;SDS011;12459;42.646;23.292;2023-06-22T05:58:26;40.47;;;38.60;;
7585;SDS011;12459;42.646;23.292;2023-06-22T06:13:28;41.77;;;39.87;;
7585;SDS011;12459;42.646;23.292;2023-06-22T06:28:29;44.57;;;42.57;;
7585;SDS011;12459;42.646;23.292;2023-06-22T06:43:31;45.77;;;43.67;;
7585;SDS011;12459;42.646;23.292;2023-06-22T06:58:33;50.50;;;48.20;;
7585;SDS011;12459;42.646;23.292;2023-06-22T07:13:34;52.30;;;49.93;;
7585;SDS011;12459;42.646;23.292;2023-06-22T07:28:36;53.37;;;50.97;;
7585;SDS011;12459;42.646;23.292;2023-06-22T07:43:39;47.90;;;45.73;;
7585;SDS011;12459;42.646;23.292;2023-06-22T07:58:41;51.07;;;48.77;;
7585;SDS011;12459;42.646;23.292;2023-06-22T08:13:42;54.47;;;52.00;;
7585;SDS011;12459;42.646;23.292;2023-06-22T08:28:44;51.77;;;49.43;;
7585;SDS011;12459;42.646;23.292;2023-06-22T08:43:46;46.13;;;44.03;;
7585;SDS011;12459;42.646;23.292;2023-06-22T08:58:47;60.00;;;57.30;;
7585;SDS011;12459;42.646;23.292;2023-06-22T09:13:49;58.30;;;55.70;;
7585;SDS011;12459;42.646;23.292;2023-06-22T09:28:52;56.60;;;54.07;;
7585;SDS011;12459;42.646;23.292;2023-06-22T09:43:53;57.33;;;54.73;;
7585;SDS011;12459;42.646;23.292;2023-06-22T09:58:57;64.33;;;61.43;;
7585;SDS011;12459;42.646;23.292;2023-06-22T10:14:18;61.53;;;58.73;;
7585;SDS011;12459;42.646;23.292;2023-06-22T10:29:20;59.90;;;57.20;;
7585;SDS011;12459;42.646;23.292;2023-06-22T10:44:22;56.43;;;53.90;;
7585;SDS011;12459;42.646;23.292;2023-06-22T10:59:23;58.63;;;56.00;;
7585;SDS011;12459;42.646;23.292;2023-06-22T11:14:27;55.20;;;52.73;;
7585;SDS011;12459;42.646;23.292;2023-06-22T11:29:28;54.27;;;51.80;;
7585;SDS011;12459;42.646;23.292;2023-06-22T11:44:38;58.83;;;56.20;;
7585;SDS011;12459;42.646;23.292;2023-06-22T11:59:40;50.93;;;48.63;;
7585;SDS011;12459;42.646;23.292;2023-06-22T12:14:42;65.23;;;62.33;;
7585;SDS011;12459;42.646;23.292;2023-06-22T12:29:47;52.40;;;50.03;;
7585;SDS011;12459;42.646;23.292;2023-06-22T12:44:49;58.70;;;56.10;;
7585;SDS011;12459;42.646;23.292;2023-06-22T12:59:50;59.60;;;56.90;;
7585;SDS011;12459;42.646;23.292;2023-06-22T13:14:52;50.70;;;48.40;;
7585;SDS011;12459;42.646;23.292;2023-06-22T13:29:55;52.60;;;50.20;;
7585;SDS011;12459;42.646;23.292;2023-06-22T13:44:57;47.80;;;45.60;;
7585;SDS011;12459;42.646;23.292;2023-06-22T13:59:59;45.23;;;43.17;;
7585;SDS011;12459;42.646;23.292;2023-06-22T14:15:01;44.10;;;42.10;;
7585;SDS011;12459;42.646;23.292;2023-06-22T14:30:03;41.60;;;39.70;;
7585;SDS011;12459;42.646;23.292;2023-06-22T14:45:07;40.40;;;38.53;;
7585;SDS011;12459;42.646;23.292;2023-06-22T15:00:09;42.63;;;40.70;;
7585;SDS011;12459;42.646;23.292;2023-06-22T15:15:11;43.20;;;41.23;;
7585;SDS011;12459;42.646;23.292;2023-06-22T15:30:13;44.13;;;42.13;;
7585;SDS011;12459;42.646;23.292;2023-06-22T15:45:16;41.77;;;39.87;;
7585;SDS011;12459;42.646;23.292;2023-06-22T16:00:17;45.87;;;43.77;;
7585;SDS011;12459;42.646;23.292;2023-06-22T16:15:20;46.13;;;44.03;;
7585;SDS011;12459;42.646;23.292;2023-06-22T16:30:21;47.23;;;45.10;;
7585;SDS011;12459;42.646;23.292;2023-06-22T16:45:23;44.20;;;42.20;;
7585;SDS011;12459;42.646;23.292;2023-06-22T17:00:25;42.70;;;40.77;;
7585;SDS011;12459;42.646;23.292;2023-06-22T17:15:27;44.37;;;42.33;;
7585;SDS011;12459;42.646;23.292;2023-06-22T17:30:31;37.70;;;36.00;;
7585;SDS011;12459;42.646;23.292;2023-06-22T17:45:40;41.53;;;39.63;;
7585;SDS011;12459;42.646;23.292;2023-06-22T18:00:44;42.27;;;40.37;;
7585;SDS011;12459;42.646;23.292;2023-06-22T18:15:49;43.73;;;41.73;;
7585;SDS011;12459;42.646;23.292;2023-06-22T18:30:52;42.33;;;40.40;;
7585;SDS011;12459;42.646;23.292;2023-06-22T18:45:55;44.13;;;42.13;;
7585;SDS011;12459;42.646;23.292;2023-06-22T19:01:17;44.43;;;42.43;;
7585;SDS011;12459;42.646;23.292;2023-06-22T19:16:28;41.53;;;39.63;;
7585;SDS011;12459;42.646;23.292;2023-06-22T19:31:31;43.97;;;41.97;;
7585;SDS011;12459;42.646;23.292;2023-06-22T19:46:33;45.07;;;43.00;;
7585;SDS011;12459;42.646;23.292;2023-06-22T20:01:36;39.97;;;38.17;;
7585;SDS011;12459;42.646;23.292;2023-06-22T20:16:47;38.43;;;36.63;;
7585;SDS011;12459;42.646;23.292;2023-06-22T20:32:05;34.77;;;33.17;;
7585;SDS011;12459;42.646;23.292;2023-06-22T20:47:08;39.30;;;37.50;;
7585;SDS011;12459;42.646;23.292;2023-06-22T21:02:11;43.53;;;41.53;;
7585;SDS011;12459;42.646;23.292;2023-06-22T21:17:13;41.63;;;39.73;;
7585;SDS011;12459;42.646;23.292;2023-06-22T21:32:15;41.17;;;39.27;;
7585;SDS011;12459;42.646;23.292;2023-06-22T21:47:17;38.73;;;36.93;;
7585;SDS011;12459;42.646;23.292;2023-06-22T22:02:19;34.67;;;33.07;;
7585;SDS011;12459;42.646;23.292;2023-06-22T22:17:21;37.23;;;35.53;;
7585;SDS011;12459;42.646;23.292;2023-06-22T22:32:23;40.13;;;38.30;;
7585;SDS011;12459;42.646;23.292;2023-06-22T22:47:24;37.03;;;35.33;;
7585;SDS011;12459;42.646;23.292;2023-06-22T23:02:26;38.30;;;36.53;;
7585;SDS011;12459;42.646;23.292;2023-06-22T23:17:29;37.97;;;36.23;;
7585;SDS011;12459;42.646;23.292;2023-06-22T23:32:31;42.63;;;40.70;;
7585;SDS011;12459;42.646;23.292;2023-06-22T23:47:33;37.60;;;35.90;;
